createdAt,value
2019-03-24T00:01:17.510Z,6.21
2019-03-24T00:06:23.186Z,6.32
2019-03-24T00:11:29.488Z,6.39
2019-03-24T00:16:36.550Z,6.44
2019-03-24T00:21:42.324Z,6.38
2019-03-24T00:26:47.998Z,6.34
2019-03-24T00:31:53.695Z,6.40
2019-03-24T00:37:00.564Z,6.45
2019-03-24T00:42:06.732Z,6.53
2019-03-24T00:47:12.842Z,6.58
2019-03-24T00:52:19.367Z,6.59
2019-03-24T00:57:24.965Z,6.66
2019-03-24T01:02:31.290Z,6.71
2019-03-24T01:07:37.585Z,6.84
2019-03-24T01:12:43.724Z,6.93
2019-03-24T01:17:49.423Z,6.84
2019-03-24T01:22:55.312Z,6.85
2019-03-24T01:28:00.994Z,6.89
2019-03-24T01:33:06.786Z,6.90
2019-03-24T01:38:12.466Z,6.93
2019-03-24T01:43:18.580Z,7.05
2019-03-24T01:48:24.504Z,7.23
2019-03-24T01:53:30.371Z,7.36
2019-03-24T01:58:37.561Z,7.43
2019-03-24T02:03:44.398Z,7.50
2019-03-24T02:08:50.449Z,7.52
2019-03-24T02:13:56.417Z,7.55
2019-03-24T02:19:03.005Z,7.59
2019-03-24T02:24:09.123Z,7.58
2019-03-24T02:29:14.821Z,7.57
2019-03-24T02:34:20.968Z,7.55
2019-03-24T02:39:26.724Z,7.57
2019-03-24T02:44:32.536Z,7.56
2019-03-24T02:49:38.695Z,7.58
2019-03-24T02:54:44.686Z,7.50
2019-03-24T02:59:50.800Z,7.52
2019-03-24T03:04:56.583Z,7.50
2019-03-24T03:10:03.199Z,7.46
2019-03-24T03:15:11.166Z,7.44
2019-03-24T03:20:17.402Z,7.41
2019-03-24T03:25:23.348Z,7.40
2019-03-24T03:30:29.051Z,7.39
2019-03-24T03:35:34.923Z,7.35
2019-03-24T03:40:40.714Z,7.33
2019-03-24T03:45:46.646Z,7.33
2019-03-24T03:50:52.404Z,7.23
2019-03-24T03:55:58.099Z,7.17
2019-03-24T04:01:05.000Z,7.10
2019-03-24T04:06:10.691Z,7.07
2019-03-24T04:11:16.386Z,6.99
2019-03-24T04:16:22.445Z,6.97
2019-03-24T04:21:28.555Z,6.86
2019-03-24T04:26:34.352Z,6.80
2019-03-24T04:31:40.478Z,6.78
2019-03-24T04:36:46.267Z,6.72
2019-03-24T04:41:52.723Z,6.66
2019-03-24T04:46:59.464Z,6.64
2019-03-24T04:52:05.372Z,6.63
2019-03-24T04:57:11.254Z,6.61
2019-03-24T05:02:17.418Z,6.57
2019-03-24T05:07:23.893Z,6.57
2019-03-24T05:12:29.986Z,6.54
2019-03-24T05:17:37.162Z,6.51
2019-03-24T05:22:43.238Z,6.49
2019-03-24T05:27:49.132Z,6.44
2019-03-24T05:32:55.342Z,6.44
2019-03-24T05:38:01.031Z,6.44
2019-03-24T05:43:06.846Z,6.44
2019-03-24T05:48:12.740Z,6.47
2019-03-24T05:53:18.525Z,6.51
2019-03-24T05:58:24.619Z,6.49
2019-03-24T06:03:30.542Z,6.42
2019-03-24T06:08:37.164Z,6.38
2019-03-24T06:13:44.193Z,6.36
2019-03-24T06:18:50.090Z,6.36
2019-03-24T06:23:55.784Z,6.32
2019-03-24T06:29:01.898Z,6.26
2019-03-24T06:34:08.062Z,6.27
2019-03-24T06:39:14.247Z,6.27
2019-03-24T06:44:20.024Z,6.23
2019-03-24T06:49:25.918Z,6.27
2019-03-24T06:54:31.622Z,6.32
2019-03-24T06:59:38.295Z,6.36
2019-03-24T07:04:44.154Z,6.28
2019-03-24T07:09:52.589Z,6.24
2019-03-24T07:14:58.892Z,6.16
2019-03-24T07:20:05.484Z,6.25
2019-03-24T07:25:11.629Z,6.24
2019-03-24T07:30:17.725Z,6.15
2019-03-24T07:35:23.778Z,6.09
2019-03-24T07:40:29.612Z,6.23
2019-03-24T07:45:35.493Z,6.41
2019-03-24T07:50:41.732Z,6.44
2019-03-24T07:55:48.072Z,6.44
2019-03-24T08:00:54.234Z,6.50
2019-03-24T08:06:00.015Z,6.57
2019-03-24T08:11:08.543Z,6.55
2019-03-24T08:16:14.353Z,6.60
2019-03-24T08:21:20.604Z,6.58
2019-03-24T08:26:26.479Z,6.67
2019-03-24T08:31:32.837Z,6.59
2019-03-24T08:36:39.360Z,6.56
2019-03-24T08:41:45.118Z,6.71
2019-03-24T08:46:51.013Z,6.66
2019-03-24T08:51:56.799Z,6.65
2019-03-24T08:57:02.623Z,6.71
2019-03-24T09:02:08.859Z,6.80
2019-03-24T09:07:15.311Z,6.88
2019-03-24T09:12:21.214Z,6.85
2019-03-24T09:17:27.034Z,6.92
2019-03-24T09:22:32.862Z,6.92
2019-03-24T09:27:38.647Z,6.94
2019-03-24T09:32:44.605Z,6.99
2019-03-24T09:37:50.774Z,6.99
2019-03-24T09:42:56.884Z,6.94
2019-03-24T09:48:02.996Z,7.08
2019-03-24T09:53:08.794Z,7.14
2019-03-24T09:58:14.571Z,7.33
2019-03-24T10:03:20.362Z,7.40
2019-03-24T10:08:27.262Z,7.46
2019-03-24T10:13:33.139Z,7.62
2019-03-24T10:18:38.921Z,7.66
2019-03-24T10:23:44.697Z,7.70
2019-03-24T10:28:50.489Z,7.72
2019-03-24T10:33:56.574Z,7.89
2019-03-24T10:39:05.351Z,7.96
2019-03-24T10:44:11.140Z,7.98
2019-03-24T10:49:24.817Z,8.19
2019-03-24T10:54:25.969Z,8.29
2019-03-24T10:59:31.790Z,8.48
2019-03-24T11:04:37.846Z,8.69
2019-03-24T11:09:45.190Z,8.60
2019-03-24T11:14:51.641Z,8.67
2019-03-24T11:19:58.475Z,8.86
2019-03-24T11:25:05.006Z,8.95
2019-03-24T11:30:12.671Z,9.19
2019-03-24T11:35:18.491Z,9.40
2019-03-24T11:40:24.485Z,9.61
2019-03-24T11:45:30.458Z,9.42
2019-03-24T11:50:36.362Z,9.54
2019-03-24T11:55:42.503Z,9.59
2019-03-24T12:00:49.103Z,9.39
2019-03-24T12:05:54.985Z,9.44
2019-03-24T12:11:00.838Z,9.54
2019-03-24T12:16:07.913Z,9.40
2019-03-24T12:21:13.804Z,9.38
2019-03-24T12:26:19.590Z,9.21
2019-03-24T12:31:25.468Z,9.28
2019-03-24T12:36:31.638Z,9.44
2019-03-24T12:41:37.435Z,9.33
2019-03-24T12:46:43.211Z,8.96
2019-03-24T12:51:49.982Z,8.88
2019-03-24T12:56:55.780Z,8.94
2019-03-24T13:02:02.410Z,8.94
2019-03-24T13:07:09.608Z,9.06
2019-03-24T13:12:15.393Z,8.99
2019-03-24T13:17:21.537Z,9.06
2019-03-24T13:22:27.650Z,9.26
2019-03-24T13:27:33.815Z,9.50
2019-03-24T13:32:40.867Z,9.57
2019-03-24T13:37:46.649Z,9.61
2019-03-24T13:42:52.877Z,9.31
2019-03-24T13:47:58.783Z,9.25
2019-03-24T13:53:04.962Z,8.97
2019-03-24T13:58:12.253Z,8.77
2019-03-24T14:03:18.139Z,8.70
2019-03-24T14:08:24.325Z,8.60
2019-03-24T14:13:30.117Z,8.62
2019-03-24T14:18:36.395Z,8.58
2019-03-24T14:23:42.515Z,8.66
2019-03-24T14:28:49.118Z,8.69
2019-03-24T14:33:55.321Z,8.67
2019-03-24T14:39:01.117Z,8.66
2019-03-24T14:44:08.582Z,8.41
2019-03-24T14:49:14.375Z,8.37
2019-03-24T14:54:20.486Z,8.30
2019-03-24T14:59:26.558Z,8.23
2019-03-24T15:04:32.442Z,8.32
2019-03-24T15:09:38.332Z,8.14
2019-03-24T15:14:44.128Z,8.11
2019-03-24T15:19:50.251Z,8.07
2019-03-24T15:24:56.263Z,7.97
2019-03-24T15:30:02.417Z,7.88
2019-03-24T15:35:09.622Z,7.94
2019-03-24T15:40:15.534Z,7.97
2019-03-24T15:45:21.742Z,8.01
2019-03-24T15:50:27.764Z,8.03
2019-03-24T15:55:33.458Z,8.05
2019-03-24T16:00:44.304Z,7.97
2019-03-24T16:05:50.189Z,8.08
2019-03-24T16:10:55.997Z,8.07
2019-03-24T16:16:02.884Z,8.12
2019-03-24T16:21:08.951Z,8.08
2019-03-24T16:26:14.746Z,8.09
2019-03-24T16:31:20.599Z,8.11
2019-03-24T16:36:26.524Z,8.07
2019-03-24T16:41:32.309Z,7.92
2019-03-24T16:46:38.103Z,7.80
2019-03-24T16:51:43.912Z,7.68
2019-03-24T16:56:49.944Z,7.60
2019-03-24T17:01:56.376Z,7.50
2019-03-24T17:07:02.144Z,7.50
2019-03-24T17:12:08.261Z,7.43
2019-03-24T17:17:17.119Z,7.37
2019-03-24T17:22:23.675Z,7.31
2019-03-24T17:27:29.869Z,7.36
2019-03-24T17:32:35.654Z,7.31
2019-03-24T17:37:41.813Z,7.26
2019-03-24T17:42:47.719Z,7.19
2019-03-24T17:47:53.436Z,6.97
2019-03-24T17:52:59.130Z,6.86
2019-03-24T17:58:04.978Z,6.75
2019-03-24T18:03:10.668Z,6.70
2019-03-24T18:08:16.457Z,6.59
2019-03-24T18:13:22.506Z,6.59
2019-03-24T18:18:28.274Z,6.53
2019-03-24T18:23:34.397Z,6.50
2019-03-24T18:28:40.113Z,6.52
2019-03-24T18:33:45.740Z,6.56
2019-03-24T18:38:52.678Z,6.53
2019-03-24T18:43:59.097Z,6.33
2019-03-24T18:49:06.034Z,6.32
2019-03-24T18:54:12.537Z,6.34
2019-03-24T18:59:18.602Z,6.14
2019-03-24T19:04:24.406Z,6.07
2019-03-24T19:09:30.105Z,6.01
2019-03-24T19:14:36.231Z,5.89
2019-03-24T19:19:43.391Z,5.75
2019-03-24T19:24:49.088Z,5.68
2019-03-24T19:29:55.177Z,5.59
2019-03-24T19:35:02.087Z,5.53
2019-03-24T19:40:13.705Z,5.38
2019-03-24T19:45:19.577Z,5.26
2019-03-24T19:50:26.765Z,5.25
2019-03-24T19:55:34.661Z,5.25
2019-03-24T20:00:40.812Z,5.21
2019-03-24T20:05:46.521Z,5.22
2019-03-24T20:10:52.631Z,5.18
2019-03-24T20:15:58.554Z,5.11
2019-03-24T20:21:04.731Z,4.93
2019-03-24T20:26:10.734Z,4.78
2019-03-24T20:31:16.898Z,4.70
2019-03-24T20:36:22.757Z,4.61
2019-03-24T20:41:29.385Z,4.58
2019-03-24T20:46:35.849Z,4.60
2019-03-24T20:51:41.699Z,4.62
2019-03-24T20:56:47.706Z,4.53
2019-03-24T21:01:53.411Z,4.52
2019-03-24T21:06:59.115Z,4.56
2019-03-24T21:12:04.985Z,4.72
2019-03-24T21:17:11.049Z,4.72
2019-03-24T21:22:16.820Z,4.81
2019-03-24T21:27:22.903Z,4.78
2019-03-24T21:32:28.775Z,4.83
2019-03-24T21:37:34.517Z,4.88
2019-03-24T21:42:40.346Z,4.92
2019-03-24T21:47:46.739Z,4.91
2019-03-24T21:52:52.481Z,4.84
2019-03-24T21:57:59.601Z,4.68
2019-03-24T22:03:06.492Z,4.60
2019-03-24T22:08:12.959Z,4.48
2019-03-24T22:13:18.650Z,4.42
2019-03-24T22:18:24.791Z,4.29
2019-03-24T22:23:30.554Z,4.18
2019-03-24T22:28:36.339Z,4.18
2019-03-24T22:33:42.093Z,4.19
2019-03-24T22:38:47.892Z,4.17
2019-03-24T22:43:53.613Z,4.16
2019-03-24T22:48:59.318Z,4.14
2019-03-24T22:54:06.101Z,4.13
2019-03-24T22:59:11.807Z,4.08
2019-03-24T23:04:18.165Z,4.14
2019-03-24T23:09:23.864Z,4.15
2019-03-24T23:14:29.558Z,4.16
2019-03-24T23:19:35.256Z,4.15
2019-03-24T23:24:41.286Z,4.18
2019-03-24T23:29:47.070Z,4.08
2019-03-24T23:34:52.948Z,4.05
2019-03-24T23:39:59.341Z,3.91
2019-03-24T23:45:05.368Z,3.82
2019-03-24T23:50:12.419Z,3.71
2019-03-24T23:55:18.119Z,3.67
